Time;durP1;ratioP1;P1;durP2;ratioP2;P2;SDS_P1;SDS_P2;PMS_P1;PMS_P2;Temp;Humidity;BMP_temperature;BMP_pressure;BME280_temperature;BME280_humidity;BME280_pressure;Samples;Min_cycle;Max_cycle;Signal;HPM_P1;HPM_P2
2023/01/17 00:02:34;;;;;;;4.55;4.22;;;6.10;99.90;;;;;;10562367;28;20224;-82
2023/01/17 00:12:57;;;;;;;15.10;13.60;;;5.90;99.90;;;;;;10554716;28;20285;-81
2023/01/17 00:18:01;;;;;;;3.50;3.40;;;5.70;99.90;;;;;;10554814;28;20204;-82
2023/01/17 01:36:55;;;;;;;2.90;2.80;;;5.90;99.90;;;;;;10571027;28;20532;-82
2023/01/17 01:41:57;;;;;;;3.27;3.07;;;5.90;99.90;;;;;;10573473;28;20211;-82
2023/01/17 01:46:59;;;;;;;4.13;3.00;;;5.80;99.90;;;;;;10536240;28;20606;-82
2023/01/17 01:52:09;;;;;;;3.07;2.80;;;5.80;99.90;;;;;;10551690;22;20654;-83
2023/01/17 01:57:15;;;;;;;3.27;2.97;;;5.80;99.90;;;;;;10507205;28;20684;-85
2023/01/17 02:02:18;;;;;;;2.43;2.33;;;5.70;99.90;;;;;;10512896;28;20224;-84
2023/01/17 02:07:26;;;;;;;3.33;2.97;;;5.60;99.90;;;;;;10545797;28;20646;-84
2023/01/17 02:12:37;;;;;;;2.77;2.63;;;5.50;99.90;;;;;;10512847;28;20221;-85
2023/01/17 02:17:49;;;;;;;2.77;2.67;;;5.60;99.90;;;;;;10508672;28;20290;-84
2023/01/17 02:23:18;;;;;;;3.20;3.00;;;5.70;99.90;;;;;;10533985;28;20463;-85
2023/01/17 02:28:39;;;;;;;2.70;2.47;;;5.80;99.90;;;;;;10519584;28;20300;-84
2023/01/17 02:33:51;;;;;;;2.90;2.70;;;5.90;99.90;;;;;;10504993;28;20319;-85
2023/01/17 02:38:59;;;;;;;3.00;2.80;;;5.90;99.90;;;;;;10512170;28;20241;-85
2023/01/17 02:44:02;;;;;;;2.27;2.17;;;5.90;99.90;;;;;;10534512;28;20223;-85
2023/01/17 02:49:06;;;;;;;2.50;2.40;;;5.80;99.90;;;;;;10548248;28;20200;-85
2023/01/17 02:54:27;;;;;;;2.70;2.60;;;5.90;99.90;;;;;;10546854;28;20551;-84
2023/01/17 02:59:39;;;;;;;3.10;2.90;;;5.80;99.90;;;;;;10544199;28;20207;-84
2023/01/17 03:04:49;;;;;;;2.70;2.60;;;5.80;99.90;;;;;;10510802;28;20239;-84
2023/01/17 03:09:58;;;;;;;2.83;2.70;;;5.90;99.90;;;;;;10535291;28;20557;-83
2023/01/17 03:15:00;;;;;;;2.70;2.60;;;6.00;99.90;;;;;;10521240;28;20196;-85
2023/01/17 03:20:04;;;;;;;2.70;2.60;;;5.90;99.90;;;;;;10551198;28;20274;-84
2023/01/17 03:25:06;;;;;;;2.50;2.40;;;5.70;99.90;;;;;;10557025;28;20223;-82
2023/01/17 03:30:09;;;;;;;2.50;2.40;;;5.50;99.90;;;;;;10542682;28;20220;-85
2023/01/17 03:35:13;;;;;;;3.03;2.90;;;5.60;99.90;;;;;;10531153;28;20193;-85
2023/01/17 03:40:15;;;;;;;2.80;2.70;;;5.60;99.90;;;;;;10514198;28;20245;-85
2023/01/17 03:45:18;;;;;;;2.80;2.60;;;5.60;99.90;;;;;;10529286;28;20252;-85
2023/01/17 03:50:22;;;;;;;3.27;3.07;;;5.60;99.90;;;;;;10529631;28;20323;-85
2023/01/17 03:55:24;;;;;;;2.73;2.63;;;5.60;99.90;;;;;;10540292;28;20192;-85
2023/01/17 04:00:26;;;;;;;3.60;2.97;;;5.80;99.90;;;;;;10529239;28;20595;-85
2023/01/17 04:05:29;;;;;;;2.70;2.60;;;5.90;99.90;;;;;;10530957;28;20311;-84
2023/01/17 04:10:32;;;;;;;1.80;1.70;;;6.00;99.90;;;;;;10530375;28;20285;-85
2023/01/17 04:15:34;;;;;;;2.60;2.50;;;6.00;99.90;;;;;;10549171;28;20227;-85
2023/01/17 04:20:39;;;;;;;2.90;2.30;;;6.00;99.90;;;;;;10531042;28;20254;-86
2023/01/17 04:25:42;;;;;;;3.10;3.00;;;5.90;99.90;;;;;;10514788;28;20225;-86
2023/01/17 04:30:44;;;;;;;2.97;2.87;;;5.90;99.90;;;;;;10526630;28;20224;-86
2023/01/17 04:35:47;;;;;;;2.87;2.77;;;5.90;99.90;;;;;;10526856;28;20192;-86
2023/01/17 04:40:49;;;;;;;2.67;2.57;;;5.70;99.90;;;;;;10527381;28;20703;-86
2023/01/17 04:45:55;;;;;;;3.40;3.20;;;5.50;99.90;;;;;;10562290;28;20280;-85
2023/01/17 04:51:00;;;;;;;2.73;2.63;;;5.40;99.90;;;;;;10559390;28;20302;-85
2023/01/17 04:56:03;;;;;;;2.67;2.47;;;5.40;99.90;;;;;;10546006;28;20196;-85
2023/01/17 05:01:06;;;;;;;3.30;2.90;;;5.30;99.90;;;;;;10542438;28;20222;-85
2023/01/17 05:06:10;;;;;;;2.80;2.70;;;5.40;99.90;;;;;;10520319;28;20222;-85
2023/01/17 05:11:12;;;;;;;3.00;2.73;;;5.30;99.90;;;;;;10528692;28;20966;-85
2023/01/17 05:16:17;;;;;;;3.23;3.03;;;5.30;99.90;;;;;;10518493;28;20196;-86
2023/01/17 05:21:20;;;;;;;2.90;2.70;;;5.20;99.90;;;;;;10521519;28;20254;-86
2023/01/17 05:26:23;;;;;;;2.10;1.90;;;5.20;99.90;;;;;;10540320;28;20759;-85
2023/01/17 05:31:25;;;;;;;2.83;2.73;;;5.10;99.90;;;;;;10540955;28;20254;-85
2023/01/17 05:36:28;;;;;;;2.97;2.88;;;5.10;99.90;;;;;;10547514;28;20639;-85
2023/01/17 05:41:30;;;;;;;2.00;1.90;;;5.20;99.90;;;;;;10530719;28;20212;-85
2023/01/17 05:46:32;;;;;;;2.83;2.67;;;5.20;99.90;;;;;;10552488;28;20239;-85
2023/01/17 05:51:38;;;;;;;3.80;3.20;;;5.00;99.90;;;;;;10522773;28;20222;-85
2023/01/17 05:56:40;;;;;;;3.33;3.10;;;5.10;99.90;;;;;;10534830;28;20235;-85
2023/01/17 06:01:42;;;;;;;2.43;2.23;;;5.00;99.90;;;;;;10539174;28;20230;-83
2023/01/17 06:06:45;;;;;;;2.53;2.40;;;4.90;99.90;;;;;;10527359;28;20283;-83
2023/01/17 06:11:47;;;;;;;2.87;2.67;;;4.70;99.90;;;;;;10547149;28;20211;-85
2023/01/17 06:16:49;;;;;;;3.23;2.80;;;4.70;99.90;;;;;;10545294;28;20207;-85
2023/01/17 06:21:53;;;;;;;3.37;3.17;;;4.50;99.90;;;;;;10549547;28;20281;-85
2023/01/17 06:26:55;;;;;;;3.80;2.90;;;4.40;99.90;;;;;;10486090;28;20577;-85
2023/01/17 06:31:57;;;;;;;4.00;3.70;;;4.30;99.90;;;;;;10525071;28;20252;-85
2023/01/17 06:37:01;;;;;;;3.67;3.47;;;4.20;99.90;;;;;;10527930;28;20210;-85
2023/01/17 06:42:03;;;;;;;3.70;3.40;;;4.20;99.90;;;;;;10527009;28;20289;-85
2023/01/17 06:47:05;;;;;;;2.60;2.43;;;4.20;99.90;;;;;;10527123;28;20476;-85
2023/01/17 06:52:08;;;;;;;2.67;2.47;;;4.10;99.90;;;;;;10510917;28;20247;-85
2023/01/17 06:57:10;;;;;;;4.00;3.00;;;4.00;99.90;;;;;;10500892;28;20288;-84
2023/01/17 07:02:13;;;;;;;2.83;2.63;;;3.90;99.90;;;;;;10527948;28;20718;-85
2023/01/17 07:07:16;;;;;;;3.00;2.80;;;3.90;99.90;;;;;;10527724;28;20709;-85
2023/01/17 07:12:18;;;;;;;4.07;3.67;;;3.80;99.90;;;;;;10508434;28;20204;-85
2023/01/17 07:17:20;;;;;;;3.20;2.97;;;3.90;99.90;;;;;;10510661;28;20212;-85
2023/01/17 07:22:24;;;;;;;3.42;3.22;;;4.00;99.90;;;;;;10510197;28;20750;-85
2023/01/17 07:27:26;;;;;;;7.23;3.20;;;4.20;99.90;;;;;;10544868;28;20279;-85
2023/01/17 07:32:28;;;;;;;3.53;2.87;;;4.30;99.90;;;;;;10547239;28;20694;-85
2023/01/17 07:37:32;;;;;;;3.10;3.00;;;4.30;99.90;;;;;;10531242;28;20194;-85
2023/01/17 07:42:34;;;;;;;3.47;3.17;;;4.30;99.90;;;;;;10542396;28;20220;-85
2023/01/17 07:47:36;;;;;;;9.70;7.90;;;4.30;99.90;;;;;;10526618;28;20299;-83
2023/01/17 07:52:40;;;;;;;7.63;6.93;;;4.40;99.90;;;;;;10576685;22;20255;-80
2023/01/17 07:57:42;;;;;;;5.73;5.33;;;4.30;99.90;;;;;;10577389;28;20196;-80
2023/01/17 08:02:44;;;;;;;4.87;4.47;;;4.30;99.90;;;;;;10510615;28;20676;-81
2023/01/17 08:07:47;;;;;;;4.70;4.30;;;4.40;99.90;;;;;;10515572;28;20231;-80
2023/01/17 08:12:50;;;;;;;4.30;4.00;;;4.40;99.90;;;;;;10492251;28;20232;-82
2023/01/17 08:17:53;;;;;;;5.37;4.97;;;4.40;99.90;;;;;;10513107;28;20516;-82
2023/01/17 08:22:56;;;;;;;4.20;3.80;;;4.40;99.90;;;;;;10515680;28;20220;-82
2023/01/17 08:27:59;;;;;;;3.50;3.30;;;4.50;99.90;;;;;;10539174;28;20269;-82
2023/01/17 08:33:01;;;;;;;3.13;2.87;;;4.80;99.90;;;;;;10522388;28;20230;-83
2023/01/17 08:38:04;;;;;;;3.60;3.40;;;5.00;99.90;;;;;;10507461;28;20201;-82
2023/01/17 08:43:15;;;;;;;3.00;2.80;;;5.10;99.90;;;;;;10508929;28;20212;-81
2023/01/17 08:48:17;;;;;;;2.70;2.50;;;5.10;99.90;;;;;;10503862;28;20232;-82
2023/01/17 08:53:22;;;;;;;3.07;2.87;;;5.40;99.90;;;;;;10519714;28;20458;-82
2023/01/17 08:58:24;;;;;;;2.50;2.30;;;5.60;99.90;;;;;;10520928;28;20292;-82
2023/01/17 09:03:26;;;;;;;2.93;2.73;;;5.60;99.90;;;;;;10523566;28;20240;-83
2023/01/17 09:08:29;;;;;;;3.07;2.87;;;5.70;99.90;;;;;;10540756;28;20211;-82
2023/01/17 09:13:32;;;;;;;3.03;2.83;;;5.70;99.80;;;;;;10507159;28;20223;-83
2023/01/17 09:18:35;;;;;;;3.00;2.80;;;5.80;99.70;;;;;;10540599;28;20587;-83
2023/01/17 09:23:39;;;;;;;3.17;2.90;;;6.00;99.00;;;;;;10505641;28;20216;-83
2023/01/17 09:28:41;;;;;;;2.80;2.60;;;6.10;99.40;;;;;;10527064;28;20224;-83
2023/01/17 09:33:43;;;;;;;3.20;2.90;;;6.00;99.90;;;;;;10526684;28;20215;-82
2023/01/17 09:38:47;;;;;;;5.60;3.80;;;6.10;98.90;;;;;;10531065;28;20830;-82
2023/01/17 09:43:52;;;;;;;3.60;3.30;;;6.10;97.00;;;;;;10513996;28;20216;-82
2023/01/17 09:49:02;;;;;;;2.90;2.70;;;6.00;98.30;;;;;;10516493;28;20216;-82
2023/01/17 09:54:16;;;;;;;4.05;3.47;;;6.00;97.90;;;;;;10495054;28;20560;-82
2023/01/17 09:59:28;;;;;;;3.50;3.20;;;6.10;96.60;;;;;;10526830;28;20200;-81
2023/01/17 10:04:51;;;;;;;3.28;2.97;;;6.20;97.30;;;;;;10475448;28;20274;-82
2023/01/17 10:10:09;;;;;;;3.90;3.30;;;6.40;96.00;;;;;;10507287;28;20199;-83
2023/01/17 10:15:37;;;;;;;2.90;2.70;;;6.30;95.40;;;;;;10513427;28;20233;-83
2023/01/17 10:20:45;;;;;;;4.00;3.13;;;6.10;96.10;;;;;;10477465;28;20223;-83
2023/01/17 10:25:51;;;;;;;2.73;2.60;;;6.00;96.30;;;;;;10505873;28;20230;-81
2023/01/17 10:30:58;;;;;;;2.97;2.63;;;6.00;96.10;;;;;;10506617;28;20285;-83
2023/01/17 10:36:05;;;;;;;3.50;3.20;;;6.20;96.20;;;;;;10513660;28;20196;-83
2023/01/17 10:41:15;;;;;;;3.07;2.87;;;6.30;96.40;;;;;;10510456;28;20216;-82
2023/01/17 10:46:22;;;;;;;4.83;2.97;;;6.20;96.70;;;;;;10509632;28;20214;-83
2023/01/17 10:51:58;;;;;;;2.57;2.37;;;6.30;95.90;;;;;;10521796;28;20251;-82
2023/01/17 10:57:02;;;;;;;11.43;10.27;;;6.20;95.90;;;;;;10493473;28;20200;-83
2023/01/17 11:02:18;;;;;;;2.90;2.70;;;6.30;96.40;;;;;;10526881;28;20217;-82
2023/01/17 11:07:22;;;;;;;2.40;2.30;;;6.30;96.90;;;;;;10526596;28;20231;-81
2023/01/17 11:12:32;;;;;;;14.83;13.33;;;6.40;93.60;;;;;;10494016;28;20243;-83
2023/01/17 11:17:37;;;;;;;2.70;2.33;;;6.40;94.40;;;;;;10512485;28;20211;-82
2023/01/17 11:22:39;;;;;;;3.63;2.40;;;6.40;94.30;;;;;;10523395;28;20212;-83
2023/01/17 11:27:56;;;;;;;4.00;2.50;;;6.40;93.90;;;;;;10509222;28;20223;-83
2023/01/17 11:33:00;;;;;;;2.50;2.30;;;6.60;90.30;;;;;;10494429;28;20256;-82
2023/01/17 11:38:07;;;;;;;5.30;4.40;;;6.60;91.90;;;;;;10510681;28;20663;-82
2023/01/17 11:43:22;;;;;;;3.00;2.50;;;6.60;91.40;;;;;;10487554;28;21508;-82
2023/01/17 11:48:24;;;;;;;2.40;2.20;;;6.60;93.20;;;;;;10506835;28;20207;-83
2023/01/17 11:53:29;;;;;;;3.43;2.20;;;6.70;91.70;;;;;;10517194;28;20227;-84
2023/01/17 11:58:35;;;;;;;3.67;2.00;;;6.80;87.30;;;;;;10502153;28;20742;-82
2023/01/17 12:03:59;;;;;;;2.10;2.00;;;6.80;87.50;;;;;;10501369;28;20211;-83
2023/01/17 12:09:11;;;;;;;2.67;2.27;;;7.00;91.00;;;;;;10500487;28;20477;-85
2023/01/17 12:14:23;;;;;;;3.47;3.17;;;7.00;90.80;;;;;;10496705;28;20219;-84
2023/01/17 12:19:37;;;;;;;3.73;1.43;;;7.00;90.90;;;;;;10501135;28;20192;-84
2023/01/17 12:25:07;;;;;;;2.40;2.17;;;7.00;88.60;;;;;;10501472;28;20240;-85
2023/01/17 12:30:26;;;;;;;3.00;2.47;;;7.10;90.00;;;;;;10533770;28;20252;-84
2023/01/17 12:35:37;;;;;;;2.17;2.07;;;7.10;88.60;;;;;;10515984;28;20203;-82
2023/01/17 12:40:48;;;;;;;2.57;2.37;;;7.10;87.60;;;;;;10495648;28;20223;-85
2023/01/17 12:45:54;;;;;;;3.10;2.77;;;7.00;91.70;;;;;;10489627;28;20221;-84
2023/01/17 12:51:02;;;;;;;5.03;2.40;;;7.10;92.10;;;;;;10507220;28;20228;-84
2023/01/17 12:56:12;;;;;;;2.10;1.90;;;7.20;92.40;;;;;;10511722;28;20214;-84
2023/01/17 13:01:21;;;;;;;2.42;2.20;;;7.40;89.90;;;;;;10524552;28;20937;-84
2023/01/17 13:06:31;;;;;;;2.40;2.20;;;7.70;92.40;;;;;;10491317;28;20610;-84
2023/01/17 13:11:40;;;;;;;2.10;2.00;;;7.70;92.90;;;;;;10508370;28;20246;-83
2023/01/17 13:16:49;;;;;;;1.90;1.80;;;7.90;87.20;;;;;;10492620;28;20449;-84
2023/01/17 13:21:52;;;;;;;2.20;2.10;;;7.80;88.40;;;;;;10510729;28;20315;-83
2023/01/17 13:27:11;;;;;;;4.53;1.83;;;7.70;84.40;;;;;;10494796;28;20208;-82
2023/01/17 13:32:30;;;;;;;2.13;2.03;;;7.60;83.80;;;;;;10492964;28;20216;-83
2023/01/17 13:38:03;;;;;;;1.87;1.77;;;7.50;85.60;;;;;;10493626;28;20192;-85
2023/01/17 13:43:12;;;;;;;2.40;2.13;;;7.40;88.10;;;;;;10527903;28;20299;-85
2023/01/17 13:48:36;;;;;;;2.40;1.90;;;7.40;85.30;;;;;;10511728;28;20585;-84
2023/01/17 13:53:59;;;;;;;2.20;2.10;;;7.40;88.90;;;;;;10500973;28;20224;-85
2023/01/17 13:59:20;;;;;;;2.43;1.83;;;7.40;86.20;;;;;;10505210;28;20196;-84
2023/01/17 14:04:25;;;;;;;1.70;1.60;;;7.50;82.10;;;;;;10499974;28;20247;-83
2023/01/17 14:09:37;;;;;;;2.43;2.23;;;7.40;86.10;;;;;;10510650;28;20219;-83
2023/01/17 14:14:54;;;;;;;3.60;2.40;;;7.40;83.40;;;;;;10507988;28;20224;-83
2023/01/17 14:20:20;;;;;;;4.97;4.17;;;7.30;82.00;;;;;;10552147;28;20191;-84
2023/01/17 14:25:27;;;;;;;3.10;2.90;;;7.30;84.50;;;;;;10533398;28;20642;-83
2023/01/17 14:30:36;;;;;;;2.80;2.60;;;7.30;85.40;;;;;;10519998;28;20307;-83
2023/01/17 14:35:49;;;;;;;3.07;2.50;;;7.30;90.70;;;;;;10511099;28;20241;-83
2023/01/17 14:40:53;;;;;;;2.97;2.77;;;7.30;86.40;;;;;;10507483;28;20691;-83
2023/01/17 14:45:58;;;;;;;2.93;2.30;;;7.30;84.30;;;;;;10537714;28;20295;-84
2023/01/17 14:51:11;;;;;;;3.28;1.90;;;7.30;88.10;;;;;;10504183;28;20262;-83
2023/01/17 14:56:15;;;;;;;3.23;2.47;;;7.50;87.70;;;;;;10535685;28;20187;-83
2023/01/17 15:01:20;;;;;;;5.03;4.23;;;7.50;87.20;;;;;;10490544;28;20271;-83
2023/01/17 15:06:27;;;;;;;3.17;2.95;;;7.50;90.10;;;;;;10494427;28;20226;-84
2023/01/17 15:11:33;;;;;;;6.70;3.58;;;7.60;90.00;;;;;;10520597;28;20204;-83
2023/01/17 15:16:37;;;;;;;3.20;2.90;;;7.80;90.80;;;;;;10520456;28;20199;-84
2023/01/17 15:21:43;;;;;;;4.53;3.10;;;7.70;90.50;;;;;;10498205;28;20227;-82
2023/01/17 15:26:45;;;;;;;6.67;4.53;;;7.60;90.90;;;;;;10500908;28;20748;-84
2023/01/17 15:31:49;;;;;;;10.50;6.00;;;7.50;91.30;;;;;;10520580;28;20274;-83
2023/01/17 15:36:56;;;;;;;7.90;5.30;;;7.60;91.20;;;;;;10522589;28;20214;-82
2023/01/17 15:42:00;;;;;;;6.85;4.22;;;7.60;91.10;;;;;;10482237;28;20219;-82
2023/01/17 15:47:03;;;;;;;6.43;4.90;;;7.60;90.40;;;;;;10497020;28;20229;-82
2023/01/17 15:52:15;;;;;;;10.67;5.47;;;7.60;88.90;;;;;;10488662;28;20227;-82
2023/01/17 15:57:22;;;;;;;11.67;6.17;;;7.40;90.20;;;;;;10495247;28;20194;-82
2023/01/17 16:02:41;;;;;;;9.63;5.60;;;7.30;90.80;;;;;;10509838;28;20219;-84
2023/01/17 16:07:45;;;;;;;9.40;5.63;;;7.40;91.10;;;;;;10507082;28;20220;-82
2023/01/17 16:12:47;;;;;;;13.23;6.60;;;7.40;90.30;;;;;;10492004;28;20304;-83
2023/01/17 16:17:52;;;;;;;15.53;10.80;;;7.30;91.00;;;;;;10504743;28;20229;-83
2023/01/17 16:22:56;;;;;;;6.70;5.13;;;7.20;90.30;;;;;;10519789;28;20223;-82
2023/01/17 16:27:58;;;;;;;5.80;4.93;;;7.20;89.00;;;;;;10530510;28;20239;-82
2023/01/17 16:33:02;;;;;;;8.87;6.57;;;7.10;90.10;;;;;;10525807;28;20224;-82
2023/01/17 16:38:09;;;;;;;11.67;7.73;;;7.10;90.60;;;;;;10551075;28;20460;-83
2023/01/17 16:43:13;;;;;;;10.37;7.90;;;7.10;90.00;;;;;;10485777;28;20216;-83
2023/01/17 16:48:15;;;;;;;8.03;6.40;;;7.20;86.50;;;;;;10535719;28;20230;-82
2023/01/17 16:53:21;;;;;;;8.63;7.00;;;7.10;87.20;;;;;;10531901;28;20243;-81
2023/01/17 16:58:23;;;;;;;21.83;15.53;;;7.10;85.80;;;;;;10531787;28;20189;-84
2023/01/17 17:03:26;;;;;;;19.50;14.03;;;7.00;83.00;;;;;;10518900;28;20218;-83
2023/01/17 17:08:33;;;;;;;18.10;11.17;;;6.90;86.80;;;;;;10480898;28;20212;-84
2023/01/17 17:13:35;;;;;;;7.33;5.53;;;6.90;86.80;;;;;;10512879;28;20299;-84
2023/01/17 17:18:37;;;;;;;7.77;5.07;;;6.90;84.00;;;;;;10518249;28;20214;-85
2023/01/17 17:23:41;;;;;;;5.70;4.63;;;6.80;83.80;;;;;;10526548;28;20318;-84
2023/01/17 17:28:43;;;;;;;9.80;7.40;;;6.60;88.50;;;;;;10533801;28;20258;-85
2023/01/17 17:33:45;;;;;;;8.57;7.13;;;6.60;87.70;;;;;;10541126;28;20655;-84
2023/01/17 17:38:50;;;;;;;6.60;6.00;;;6.30;92.00;;;;;;10517184;28;20189;-83
2023/01/17 17:43:53;;;;;;;7.93;6.13;;;5.90;94.00;;;;;;10493613;28;20208;-81
2023/01/17 17:48:56;;;;;;;8.37;6.30;;;5.70;95.30;;;;;;10497074;28;20220;-84
2023/01/17 17:54:01;;;;;;;8.40;7.07;;;5.50;96.70;;;;;;10512398;28;20219;-84
2023/01/17 17:59:05;;;;;;;10.03;6.43;;;5.30;97.70;;;;;;10554143;28;20276;-83
2023/01/17 18:04:08;;;;;;;6.10;5.33;;;5.20;98.70;;;;;;10493482;28;20222;-82
2023/01/17 18:09:12;;;;;;;9.57;6.57;;;5.20;99.70;;;;;;10481584;28;20221;-83
2023/01/17 18:14:16;;;;;;;8.27;6.60;;;5.10;99.90;;;;;;10491865;28;20224;-83
2023/01/17 18:19:20;;;;;;;8.90;7.07;;;5.10;99.90;;;;;;10508376;28;20208;-82
2023/01/17 18:24:27;;;;;;;10.50;8.90;;;5.10;99.90;;;;;;10544240;28;20223;-83
2023/01/17 18:29:30;;;;;;;8.50;6.53;;;5.20;99.90;;;;;;10470365;28;20700;-83
2023/01/17 18:34:34;;;;;;;9.63;7.47;;;5.20;99.90;;;;;;10486896;28;20302;-83
2023/01/17 18:39:37;;;;;;;9.17;8.03;;;5.30;99.90;;;;;;10470373;28;20567;-81
2023/01/17 18:44:40;;;;;;;10.50;7.87;;;5.30;99.90;;;;;;10522926;28;20667;-82
2023/01/17 18:49:42;;;;;;;9.70;7.78;;;5.30;99.90;;;;;;10525005;28;20260;-82
2023/01/17 18:54:46;;;;;;;8.37;6.60;;;5.40;99.90;;;;;;10490296;28;20233;-80
2023/01/17 18:59:48;;;;;;;8.03;7.00;;;5.50;99.90;;;;;;10524338;28;20757;-79
2023/01/17 19:04:50;;;;;;;7.90;7.00;;;5.60;99.90;;;;;;10509380;28;20219;-81
2023/01/17 19:09:54;;;;;;;6.90;6.20;;;5.50;99.90;;;;;;10510125;28;20272;-79
2023/01/17 19:14:56;;;;;;;7.90;6.80;;;5.40;99.90;;;;;;10521835;28;20222;-79
2023/01/17 19:19:58;;;;;;;7.38;6.50;;;5.30;99.90;;;;;;10538566;28;20243;-78
2023/01/17 19:25:02;;;;;;;9.83;7.10;;;5.40;99.90;;;;;;10504157;28;20204;-79
2023/01/17 19:30:04;;;;;;;7.13;6.45;;;5.40;99.90;;;;;;10488254;28;20315;-79
2023/01/17 19:35:07;;;;;;;8.77;6.70;;;5.50;99.90;;;;;;10505546;28;20207;-78
2023/01/17 19:40:12;;;;;;;7.57;6.55;;;5.40;99.90;;;;;;10500093;28;20594;-78
2023/01/17 19:45:14;;;;;;;10.53;9.10;;;5.40;99.90;;;;;;10516247;28;20235;-78
2023/01/17 19:50:17;;;;;;;9.60;8.60;;;5.50;99.90;;;;;;10537622;28;20299;-79
2023/01/17 19:55:24;;;;;;;12.67;10.23;;;5.50;99.90;;;;;;10606096;22;20247;-81
2023/01/17 20:00:26;;;;;;;9.82;8.48;;;5.30;99.90;;;;;;10549023;28;20257;-81
2023/01/17 20:05:31;;;;;;;9.57;7.60;;;5.40;99.90;;;;;;10512802;28;20224;-81
2023/01/17 20:10:34;;;;;;;10.60;7.40;;;5.40;99.90;;;;;;10510761;28;20228;-81
2023/01/17 20:15:36;;;;;;;8.87;7.97;;;5.40;99.90;;;;;;10503584;28;20434;-81
2023/01/17 20:20:40;;;;;;;9.15;8.25;;;5.30;99.90;;;;;;10532052;28;20196;-81
2023/01/17 20:25:58;;;;;;;11.20;8.90;;;5.30;99.90;;;;;;10551416;28;20216;-81
2023/01/17 20:31:05;;;;;;;12.50;10.00;;;5.50;99.90;;;;;;10535542;28;20227;-81
2023/01/17 20:36:09;;;;;;;10.52;9.38;;;5.40;99.90;;;;;;10516949;28;20290;-81
2023/01/17 20:41:15;;;;;;;10.37;9.03;;;5.50;99.90;;;;;;10544865;28;20255;-84
2023/01/17 20:46:19;;;;;;;12.27;10.60;;;5.40;99.90;;;;;;10536823;28;20200;-83
2023/01/17 20:51:25;;;;;;;11.23;10.07;;;5.30;99.90;;;;;;10526118;28;20733;-83
2023/01/17 20:56:33;;;;;;;11.33;10.10;;;5.20;99.90;;;;;;10538941;28;20196;-83
2023/01/17 21:01:35;;;;;;;10.63;9.73;;;5.10;99.90;;;;;;10486459;28;20232;-83
2023/01/17 21:06:38;;;;;;;11.13;10.03;;;5.10;99.90;;;;;;10490486;28;20684;-83
2023/01/17 21:11:48;;;;;;;11.90;10.53;;;5.00;99.90;;;;;;10533079;28;20653;-83
2023/01/17 21:16:50;;;;;;;10.97;9.90;;;5.10;99.90;;;;;;10503254;28;20299;-84
2023/01/17 21:21:55;;;;;;;11.93;10.57;;;5.10;99.90;;;;;;10516766;28;20699;-84
2023/01/17 21:26:59;;;;;;;13.73;11.43;;;5.10;99.90;;;;;;10530101;28;20212;-84
2023/01/17 21:32:01;;;;;;;11.90;10.80;;;5.10;99.90;;;;;;10536690;28;20677;-84
2023/01/17 21:37:20;;;;;;;11.30;10.13;;;5.10;99.90;;;;;;10516913;28;20197;-84
2023/01/17 21:42:33;;;;;;;11.60;10.47;;;5.10;99.90;;;;;;10493125;28;20216;-84
2023/01/17 21:47:43;;;;;;;11.60;10.50;;;5.10;99.90;;;;;;10509629;28;20231;-84
2023/01/17 21:52:50;;;;;;;11.80;10.70;;;5.30;99.90;;;;;;10508879;28;20277;-84
2023/01/17 22:03:14;;;;;;;11.80;10.55;;;5.20;99.90;;;;;;10510277;28;20705;-84
2023/01/17 22:08:16;;;;;;;10.83;9.93;;;5.30;99.90;;;;;;10540403;28;20638;-84
2023/01/17 22:13:20;;;;;;;14.57;10.50;;;5.30;99.90;;;;;;10536923;28;20217;-83
2023/01/17 22:18:22;;;;;;;12.83;11.63;;;5.20;99.90;;;;;;10502555;28;20616;-84
2023/01/17 22:23:25;;;;;;;12.23;11.13;;;5.10;99.90;;;;;;10502986;28;20222;-84
2023/01/17 22:28:31;;;;;;;11.47;10.37;;;5.10;99.90;;;;;;10517972;28;20208;-84
2023/01/17 22:33:33;;;;;;;10.97;9.97;;;5.10;99.90;;;;;;10507294;28;20224;-84
2023/01/17 22:38:36;;;;;;;12.30;11.30;;;5.00;99.90;;;;;;10505473;28;20660;-84
2023/01/17 22:43:41;;;;;;;12.33;8.87;;;5.10;99.90;;;;;;10533582;28;20224;-84
2023/01/17 22:48:44;;;;;;;10.03;9.23;;;5.10;99.90;;;;;;10507798;28;20220;-84
2023/01/17 22:53:48;;;;;;;11.55;10.43;;;5.00;99.90;;;;;;10538940;28;20301;-85
2023/01/17 22:58:52;;;;;;;11.67;10.57;;;5.20;99.90;;;;;;10492344;28;20200;-83
2023/01/17 23:03:56;;;;;;;11.45;10.45;;;5.20;99.90;;;;;;10537984;28;20222;-83
2023/01/17 23:09:00;;;;;;;10.87;9.97;;;5.20;99.90;;;;;;10518499;28;20319;-84
2023/01/17 23:14:03;;;;;;;11.55;10.55;;;5.30;99.90;;;;;;10538886;28;20232;-84
2023/01/17 23:19:22;;;;;;;10.67;9.67;;;5.30;99.90;;;;;;10519637;28;20280;-84
2023/01/17 23:24:24;;;;;;;10.38;9.48;;;5.30;99.90;;;;;;10490025;28;20226;-83
2023/01/17 23:29:28;;;;;;;10.97;9.90;;;5.30;99.90;;;;;;10519153;28;20247;-85
2023/01/17 23:34:30;;;;;;;10.93;9.83;;;5.20;99.90;;;;;;10493233;28;20762;-85
2023/01/17 23:39:32;;;;;;;11.37;10.37;;;5.20;99.90;;;;;;10559869;28;20540;-84
2023/01/17 23:44:35;;;;;;;10.67;9.67;;;5.10;99.90;;;;;;10507195;28;20246;-85
2023/01/17 23:49:39;;;;;;;11.03;10.13;;;5.00;99.90;;;;;;10525362;28;20223;-84
2023/01/17 23:54:41;;;;;;;10.70;9.90;;;5.00;99.90;;;;;;10494271;28;20228;-84
2023/01/17 23:59:45;;;;;;;11.10;10.10;;;4.90;99.90;;;;;;10535630;28;20219;-84
